createdAt,value
2023-05-19T00:01:55.018Z,99.90
2023-05-19T00:04:22.526Z,99.90
2023-05-19T00:06:51.519Z,99.90
2023-05-19T00:09:18.727Z,99.90
2023-05-19T00:11:45.922Z,99.90
2023-05-19T00:14:13.416Z,99.90
2023-05-19T00:16:42.212Z,99.90
2023-05-19T00:19:10.056Z,99.90
2023-05-19T00:21:40.565Z,99.90
2023-05-19T00:24:07.497Z,99.90
2023-05-19T00:26:34.397Z,99.90
2023-05-19T00:29:05.922Z,99.90
2023-05-19T00:31:34.148Z,99.90
2023-05-19T00:34:01.516Z,99.90
2023-05-19T00:36:28.882Z,99.90
2023-05-19T00:38:56.999Z,99.90
2023-05-19T00:41:23.782Z,99.90
2023-05-19T00:43:51.301Z,99.90
2023-05-19T00:46:19.422Z,99.90
2023-05-19T00:48:46.488Z,99.90
2023-05-19T00:51:16.838Z,99.90
2023-05-19T00:53:48.510Z,99.90
2023-05-19T00:56:16.774Z,99.90
2023-05-19T00:58:44.609Z,99.90
2023-05-19T01:01:14.453Z,99.90
2023-05-19T01:03:43.548Z,99.90
2023-05-19T01:06:12.153Z,99.90
2023-05-19T01:08:39.430Z,99.90
2023-05-19T01:11:07.562Z,99.90
2023-05-19T01:13:36.319Z,99.90
2023-05-19T01:16:21.380Z,99.90
2023-05-19T01:19:02.279Z,99.90
2023-05-19T01:21:53.784Z,99.90
2023-05-19T01:24:51.605Z,99.90
2023-05-19T01:28:06.357Z,99.90
2023-05-19T01:30:40.610Z,99.90
2023-05-19T01:33:12.054Z,99.90
2023-05-19T01:35:40.902Z,99.90
2023-05-19T01:38:12.298Z,99.90
2023-05-19T01:40:42.035Z,99.90
2023-05-19T01:43:11.754Z,99.90
2023-05-19T01:45:40.142Z,99.90
2023-05-19T01:48:10.603Z,99.90
2023-05-19T01:50:39.348Z,99.90
2023-05-19T01:53:07.334Z,99.90
2023-05-19T01:55:40.325Z,99.90
2023-05-19T01:58:19.408Z,99.90
2023-05-19T02:00:52.128Z,99.90
2023-05-19T02:03:54.123Z,99.90
2023-05-19T02:06:46.405Z,99.90
2023-05-19T02:09:20.333Z,99.90
2023-05-19T02:11:54.812Z,99.90
2023-05-19T02:14:45.883Z,99.90
2023-05-19T02:17:16.079Z,99.90
2023-05-19T02:19:43.525Z,99.90
2023-05-19T02:22:10.571Z,99.90
2023-05-19T02:24:37.767Z,99.90
2023-05-19T02:27:04.831Z,99.90
2023-05-19T02:29:31.616Z,99.90
2023-05-19T02:32:00.448Z,99.90
2023-05-19T02:34:27.334Z,99.90
2023-05-19T02:36:54.152Z,99.90
2023-05-19T02:39:21.174Z,99.90
2023-05-19T02:41:48.008Z,99.90
2023-05-19T02:44:15.004Z,99.90
2023-05-19T02:46:41.992Z,99.90
2023-05-19T02:49:09.197Z,99.90
2023-05-19T02:51:35.964Z,99.90
2023-05-19T02:54:02.821Z,99.90
2023-05-19T02:56:29.597Z,99.90
2023-05-19T02:58:56.739Z,99.90
2023-05-19T03:01:23.582Z,99.90
2023-05-19T03:03:50.625Z,99.90
2023-05-19T03:06:18.207Z,99.90
2023-05-19T03:08:45.122Z,99.90
2023-05-19T03:11:12.329Z,99.90
2023-05-19T03:13:39.103Z,99.90
2023-05-19T03:16:08.429Z,99.90
2023-05-19T03:18:36.075Z,99.90
2023-05-19T03:21:02.959Z,99.90
2023-05-19T03:23:29.954Z,99.90
2023-05-19T03:25:56.697Z,99.90
2023-05-19T03:28:23.583Z,99.90
2023-05-19T03:30:50.990Z,99.90
2023-05-19T03:33:20.922Z,99.90
2023-05-19T03:35:48.360Z,99.90
2023-05-19T03:38:16.114Z,99.90
2023-05-19T03:40:50.871Z,99.90
2023-05-19T03:43:17.672Z,99.90
2023-05-19T03:45:49.579Z,99.90
2023-05-19T03:48:35.512Z,99.90
2023-05-19T03:51:17.890Z,99.90
2023-05-19T03:53:47.001Z,99.90
2023-05-19T03:56:14.042Z,99.90
2023-05-19T03:58:44.340Z,99.90
2023-05-19T04:01:11.855Z,99.90
2023-05-19T04:03:38.856Z,99.90
2023-05-19T04:06:05.955Z,99.90
2023-05-19T04:08:32.973Z,99.90
2023-05-19T04:10:59.810Z,99.90
2023-05-19T04:13:26.653Z,99.90
2023-05-19T04:15:53.494Z,99.90
2023-05-19T04:18:20.677Z,99.90
2023-05-19T04:20:47.744Z,99.90
2023-05-19T04:23:14.570Z,99.90
2023-05-19T04:25:42.054Z,99.90
2023-05-19T04:28:09.256Z,99.90
2023-05-19T04:30:38.743Z,99.90
2023-05-19T04:33:05.627Z,99.90
2023-05-19T04:35:33.021Z,99.90
2023-05-19T04:38:01.678Z,99.90
2023-05-19T04:40:31.790Z,99.90
2023-05-19T04:42:59.067Z,99.90
2023-05-19T04:45:26.126Z,99.90
2023-05-19T04:47:58.213Z,99.90
2023-05-19T04:50:25.533Z,99.90
2023-05-19T04:52:52.986Z,99.90
2023-05-19T04:55:20.241Z,99.90
2023-05-19T04:57:48.402Z,99.90
2023-05-19T05:00:15.644Z,99.90
2023-05-19T05:02:53.046Z,99.90
2023-05-19T05:05:21.567Z,99.90
2023-05-19T05:07:49.459Z,99.90
2023-05-19T05:10:17.000Z,99.90
2023-05-19T05:12:44.108Z,99.90
2023-05-19T05:15:11.538Z,99.90
2023-05-19T05:17:38.858Z,99.90
2023-05-19T05:20:06.989Z,99.90
2023-05-19T05:22:34.790Z,99.90
2023-05-19T05:25:02.964Z,99.90
2023-05-19T05:27:29.792Z,99.90
2023-05-19T05:29:59.130Z,99.90
2023-05-19T05:32:28.756Z,99.90
2023-05-19T05:34:56.089Z,99.90
2023-05-19T05:37:22.950Z,99.90
2023-05-19T05:39:49.922Z,99.90
2023-05-19T05:42:16.764Z,99.90
2023-05-19T05:44:43.947Z,99.90
2023-05-19T05:47:12.214Z,99.90
2023-05-19T05:49:40.272Z,99.90
2023-05-19T05:52:09.352Z,99.90
2023-05-19T05:54:42.956Z,99.90
2023-05-19T05:57:10.726Z,99.90
2023-05-19T05:59:38.678Z,99.90
2023-05-19T06:02:05.662Z,99.90
2023-05-19T06:04:33.482Z,99.90
2023-05-19T06:07:01.759Z,99.90
2023-05-19T06:09:33.384Z,99.90
2023-05-19T06:12:01.165Z,99.90
2023-05-19T06:14:36.267Z,99.90
2023-05-19T06:17:12.289Z,99.90
2023-05-19T06:19:39.258Z,99.90
2023-05-19T06:22:06.324Z,99.90
2023-05-19T06:24:33.826Z,99.90
2023-05-19T06:27:00.794Z,99.90
2023-05-19T06:29:27.604Z,99.90
2023-05-19T06:31:57.077Z,99.90
2023-05-19T06:34:24.690Z,99.90
2023-05-19T06:36:51.470Z,99.90
2023-05-19T06:39:19.504Z,99.90
2023-05-19T06:41:46.429Z,99.90
2023-05-19T06:44:27.168Z,99.90
2023-05-19T06:46:53.960Z,99.90
2023-05-19T06:49:21.213Z,99.90
2023-05-19T06:51:49.214Z,99.90
2023-05-19T06:54:16.399Z,99.90
2023-05-19T06:56:43.442Z,99.90
2023-05-19T06:59:11.063Z,99.90
2023-05-19T07:01:38.784Z,99.90
2023-05-19T07:04:06.053Z,99.90
2023-05-19T07:06:33.975Z,99.90
2023-05-19T07:09:01.179Z,99.90
2023-05-19T07:11:28.647Z,99.90
2023-05-19T07:13:56.233Z,99.90
2023-05-19T07:16:27.559Z,99.90
2023-05-19T07:18:55.232Z,99.90
2023-05-19T07:21:22.167Z,99.90
2023-05-19T07:23:49.917Z,99.90
2023-05-19T07:26:16.793Z,99.90
2023-05-19T07:28:43.610Z,99.90
2023-05-19T07:31:10.609Z,99.90
2023-05-19T07:33:37.652Z,99.90
2023-05-19T07:36:04.641Z,99.90
2023-05-19T07:38:49.907Z,99.90
2023-05-19T07:41:16.889Z,99.90
2023-05-19T07:43:43.722Z,99.90
2023-05-19T07:46:10.954Z,99.90
2023-05-19T07:48:37.844Z,99.90
2023-05-19T07:51:04.898Z,99.90
2023-05-19T07:53:31.671Z,99.90
2023-05-19T07:55:58.874Z,99.90
2023-05-19T07:58:26.099Z,99.90
2023-05-19T08:00:53.348Z,99.90
2023-05-19T08:03:20.874Z,99.90
2023-05-19T08:05:48.240Z,99.90
2023-05-19T08:08:16.671Z,99.90
2023-05-19T08:10:43.779Z,99.90
2023-05-19T08:13:10.615Z,99.90
2023-05-19T08:15:37.750Z,99.90
2023-05-19T08:18:05.357Z,99.90
2023-05-19T08:20:33.266Z,99.90
2023-05-19T08:23:00.530Z,99.90
2023-05-19T08:25:27.604Z,99.90
2023-05-19T08:27:54.383Z,99.90
2023-05-19T08:30:21.315Z,99.90
2023-05-19T08:32:48.882Z,99.90
2023-05-19T08:35:15.895Z,99.90
2023-05-19T08:37:44.046Z,99.90
2023-05-19T08:40:17.298Z,99.90
2023-05-19T08:42:45.764Z,99.90
2023-05-19T08:45:13.940Z,99.90
2023-05-19T08:47:47.224Z,99.90
2023-05-19T08:50:21.308Z,99.90
2023-05-19T08:52:53.508Z,99.90
2023-05-19T08:55:53.303Z,99.90
2023-05-19T08:58:21.938Z,99.90
2023-05-19T09:03:23.221Z,99.90
2023-05-19T09:05:51.329Z,99.90
2023-05-19T09:08:18.448Z,99.90
2023-05-19T09:10:45.292Z,99.90
2023-05-19T09:13:12.202Z,99.90
2023-05-19T09:15:41.284Z,99.90
2023-05-19T09:18:12.559Z,99.90
2023-05-19T09:20:48.234Z,99.90
2023-05-19T09:23:16.374Z,99.90
2023-05-19T09:25:53.490Z,99.90
2023-05-19T09:28:33.237Z,99.90
2023-05-19T09:31:08.373Z,99.90
2023-05-19T09:33:37.855Z,99.90
2023-05-19T09:36:07.126Z,99.90
2023-05-19T09:38:35.778Z,99.90
2023-05-19T09:41:03.335Z,99.90
2023-05-19T09:43:31.787Z,99.90
2023-05-19T09:46:06.132Z,99.90
2023-05-19T09:48:34.736Z,99.40
2023-05-19T09:51:02.471Z,99.30
2023-05-19T09:53:34.019Z,97.70
2023-05-19T09:56:02.257Z,98.20
2023-05-19T09:58:36.919Z,97.20
2023-05-19T10:01:04.637Z,98.10
2023-05-19T10:03:33.040Z,99.90
2023-05-19T10:06:01.667Z,98.90
2023-05-19T10:08:30.705Z,98.30
2023-05-19T10:10:58.629Z,97.30
2023-05-19T10:13:26.732Z,97.20
2023-05-19T10:15:58.914Z,97.60
2023-05-19T10:18:27.774Z,96.90
2023-05-19T10:20:55.038Z,96.80
2023-05-19T10:23:22.503Z,97.30
2023-05-19T10:25:52.860Z,97.70
2023-05-19T10:28:24.896Z,95.60
2023-05-19T10:30:56.641Z,95.80
2023-05-19T10:33:47.582Z,96.70
2023-05-19T10:36:23.637Z,96.80
2023-05-19T10:38:50.411Z,96.90
2023-05-19T10:41:27.517Z,96.50
2023-05-19T10:44:12.816Z,96.10
2023-05-19T10:46:41.548Z,96.00
2023-05-19T10:49:08.482Z,96.40
2023-05-19T10:51:36.226Z,97.00
2023-05-19T10:54:08.813Z,95.90
2023-05-19T10:56:42.389Z,96.70
2023-05-19T10:59:34.615Z,96.10
2023-05-19T11:02:05.712Z,95.70
2023-05-19T11:04:51.863Z,96.30
2023-05-19T11:07:24.584Z,97.70
2023-05-19T11:09:54.666Z,98.10
2023-05-19T11:12:24.638Z,97.00
2023-05-19T11:14:54.310Z,97.60
2023-05-19T11:17:22.231Z,97.00
2023-05-19T11:19:56.538Z,97.30
2023-05-19T11:22:27.573Z,97.60
2023-05-19T11:24:58.024Z,97.80
2023-05-19T11:27:26.326Z,97.50
2023-05-19T11:29:55.232Z,97.90
2023-05-19T11:32:25.791Z,97.80
2023-05-19T11:34:53.800Z,98.00
2023-05-19T11:37:21.011Z,98.70
2023-05-19T11:39:48.253Z,97.60
2023-05-19T11:42:15.123Z,99.70
2023-05-19T11:44:46.295Z,97.50
2023-05-19T11:47:16.840Z,97.40
2023-05-19T11:49:46.031Z,97.30
2023-05-19T11:52:13.148Z,98.70
2023-05-19T11:54:41.910Z,99.10
2023-05-19T11:57:11.117Z,98.80
2023-05-19T11:59:41.063Z,98.40
2023-05-19T12:02:17.049Z,99.20
2023-05-19T12:04:43.910Z,98.90
2023-05-19T12:07:17.572Z,98.20
2023-05-19T12:09:48.226Z,98.00
2023-05-19T12:12:17.323Z,97.80
2023-05-19T12:14:46.116Z,96.80
2023-05-19T12:17:14.765Z,98.20
2023-05-19T12:19:44.513Z,98.00
2023-05-19T12:22:12.189Z,97.10
2023-05-19T12:24:40.221Z,97.20
2023-05-19T12:27:18.204Z,98.00
2023-05-19T12:29:53.279Z,96.50
2023-05-19T12:32:25.381Z,97.40
2023-05-19T12:34:53.239Z,95.30
2023-05-19T12:37:20.693Z,94.80
2023-05-19T12:39:50.155Z,94.60
2023-05-19T12:42:17.169Z,94.60
2023-05-19T12:44:46.849Z,93.50
2023-05-19T12:47:18.726Z,91.40
2023-05-19T12:50:18.276Z,91.30
2023-05-19T12:52:47.545Z,93.20
2023-05-19T12:55:16.504Z,92.50
2023-05-19T12:57:45.099Z,90.40
2023-05-19T13:00:25.474Z,91.10
2023-05-19T13:03:17.042Z,91.00
2023-05-19T13:05:50.438Z,90.30
2023-05-19T13:08:20.041Z,89.50
2023-05-19T13:10:49.095Z,90.10
2023-05-19T13:13:16.658Z,89.60
2023-05-19T13:15:46.382Z,91.50
2023-05-19T13:18:14.380Z,90.20
2023-05-19T13:20:43.080Z,87.60
2023-05-19T13:23:14.311Z,89.50
2023-05-19T13:25:42.123Z,89.60
2023-05-19T13:28:09.665Z,90.10
2023-05-19T13:30:39.446Z,89.10
2023-05-19T13:33:06.534Z,85.90
2023-05-19T13:35:39.337Z,88.90
2023-05-19T13:38:07.914Z,89.00
2023-05-19T13:40:35.209Z,88.30
2023-05-19T13:43:02.862Z,88.50
2023-05-19T13:45:29.954Z,87.70
2023-05-19T13:47:57.068Z,86.10
2023-05-19T13:50:24.290Z,87.10
2023-05-19T13:52:51.095Z,87.10
2023-05-19T13:55:18.205Z,86.90
2023-05-19T13:57:45.023Z,87.90
2023-05-19T14:00:12.176Z,87.20
2023-05-19T14:02:40.041Z,88.40
2023-05-19T14:05:07.812Z,87.70
2023-05-19T14:07:35.265Z,89.90
2023-05-19T14:10:03.970Z,86.40
2023-05-19T14:12:41.647Z,86.80
2023-05-19T14:15:14.572Z,84.60
2023-05-19T14:17:41.951Z,85.00
2023-05-19T14:20:09.649Z,85.80
2023-05-19T14:22:36.559Z,85.10
2023-05-19T14:25:03.675Z,82.40
2023-05-19T14:27:31.555Z,83.10
2023-05-19T14:29:58.755Z,84.00
2023-05-19T14:32:27.370Z,83.10
2023-05-19T14:34:56.289Z,84.50
2023-05-19T14:37:23.188Z,82.20
2023-05-19T14:39:50.196Z,82.70
2023-05-19T14:42:17.029Z,83.80
2023-05-19T14:44:43.967Z,83.80
2023-05-19T14:47:12.332Z,84.10
2023-05-19T14:49:39.338Z,84.60
2023-05-19T14:52:06.319Z,82.40
2023-05-19T14:54:33.910Z,82.60
2023-05-19T14:57:01.555Z,83.10
2023-05-19T14:59:29.634Z,81.70
2023-05-19T15:01:56.868Z,84.50
2023-05-19T15:04:24.064Z,81.40
2023-05-19T15:07:05.850Z,82.00
2023-05-19T15:09:36.860Z,81.50
2023-05-19T15:12:04.014Z,82.30
2023-05-19T15:14:31.345Z,82.70
2023-05-19T15:16:59.360Z,82.80
2023-05-19T15:19:26.632Z,82.10
2023-05-19T15:21:54.175Z,82.20
2023-05-19T15:24:21.121Z,82.70
2023-05-19T15:26:48.446Z,81.80
2023-05-19T15:29:15.382Z,78.80
2023-05-19T15:31:42.345Z,79.00
2023-05-19T15:34:09.672Z,80.30
2023-05-19T15:36:37.227Z,79.20
2023-05-19T15:39:05.018Z,78.50
2023-05-19T15:41:31.847Z,78.50
2023-05-19T15:44:02.435Z,80.40
2023-05-19T15:46:29.883Z,78.90
2023-05-19T15:48:56.874Z,79.00
2023-05-19T15:51:24.246Z,80.20
2023-05-19T15:53:51.636Z,79.50
2023-05-19T15:56:21.612Z,79.90
2023-05-19T15:58:48.551Z,79.70
2023-05-19T16:01:16.761Z,79.20
2023-05-19T16:03:44.549Z,80.30
2023-05-19T16:06:11.596Z,81.40
2023-05-19T16:08:38.382Z,79.80
2023-05-19T16:11:05.331Z,79.80
2023-05-19T16:13:33.606Z,80.90
2023-05-19T16:16:00.572Z,81.10
2023-05-19T16:18:29.220Z,80.50
2023-05-19T16:20:56.763Z,79.20
2023-05-19T16:23:24.792Z,79.00
2023-05-19T16:25:51.704Z,79.10
2023-05-19T16:28:18.569Z,79.30
2023-05-19T16:30:46.124Z,79.40
2023-05-19T16:33:13.273Z,79.90
2023-05-19T16:35:40.199Z,79.10
2023-05-19T16:38:07.004Z,79.80
2023-05-19T16:40:34.013Z,81.50
2023-05-19T16:43:01.191Z,80.60
2023-05-19T16:45:28.398Z,79.70
2023-05-19T16:47:55.351Z,79.80
2023-05-19T16:50:22.549Z,79.90
2023-05-19T16:52:49.333Z,79.20
2023-05-19T16:55:19.684Z,80.90
2023-05-19T16:57:46.958Z,79.20
2023-05-19T17:00:14.558Z,81.30
2023-05-19T17:02:41.632Z,81.30
2023-05-19T17:05:09.113Z,81.90
2023-05-19T17:07:35.916Z,81.90
2023-05-19T17:10:02.773Z,81.70
2023-05-19T17:12:29.683Z,81.60
2023-05-19T17:14:57.072Z,82.30
2023-05-19T17:17:23.870Z,81.30
2023-05-19T17:19:50.699Z,81.60
2023-05-19T17:22:17.634Z,82.10
2023-05-19T17:24:44.631Z,82.10
2023-05-19T17:27:11.391Z,82.10
2023-05-19T17:29:38.207Z,83.30
2023-05-19T17:32:05.253Z,83.10
2023-05-19T17:34:32.736Z,83.40
2023-05-19T17:36:59.511Z,83.00
2023-05-19T17:39:26.679Z,82.70
2023-05-19T17:41:53.546Z,84.10
2023-05-19T17:44:20.310Z,85.30
2023-05-19T17:46:47.152Z,84.70
2023-05-19T17:49:15.237Z,85.60
2023-05-19T17:51:42.615Z,85.30
2023-05-19T17:54:09.612Z,85.00
2023-05-19T17:56:42.274Z,86.40
2023-05-19T17:59:09.620Z,84.70
2023-05-19T18:01:37.130Z,85.20
2023-05-19T18:04:04.444Z,85.80
2023-05-19T18:06:32.210Z,85.50
2023-05-19T18:09:02.469Z,85.40
2023-05-19T18:11:29.596Z,84.70
2023-05-19T18:13:57.312Z,84.60
2023-05-19T18:16:24.311Z,85.80
2023-05-19T18:18:51.174Z,86.00
2023-05-19T18:21:18.150Z,84.90
2023-05-19T18:23:45.657Z,84.80
2023-05-19T18:26:13.112Z,85.60
2023-05-19T18:28:40.756Z,85.30
2023-05-19T18:31:17.262Z,85.50
2023-05-19T18:33:44.327Z,87.20
2023-05-19T18:36:11.182Z,86.30
2023-05-19T18:38:37.961Z,87.10
2023-05-19T18:41:07.163Z,88.00
2023-05-19T18:43:34.674Z,88.00
2023-05-19T18:46:01.538Z,88.30
2023-05-19T18:48:29.452Z,88.20
2023-05-19T18:50:57.164Z,89.40
2023-05-19T18:53:24.012Z,89.40
2023-05-19T18:55:50.867Z,90.30
2023-05-19T18:58:18.627Z,91.00
2023-05-19T19:00:45.641Z,91.10
2023-05-19T19:03:12.633Z,91.80
2023-05-19T19:05:39.935Z,91.50
2023-05-19T19:08:06.890Z,91.60
2023-05-19T19:10:37.363Z,91.40
2023-05-19T19:13:04.234Z,92.00
2023-05-19T19:15:31.634Z,91.80
2023-05-19T19:17:58.709Z,91.70
2023-05-19T19:20:25.534Z,92.10
2023-05-19T19:22:53.478Z,92.20
2023-05-19T19:25:23.126Z,91.90
2023-05-19T19:27:50.607Z,92.30
2023-05-19T19:30:17.478Z,92.20
2023-05-19T19:32:44.587Z,92.00
2023-05-19T19:35:11.517Z,92.20
2023-05-19T19:37:38.327Z,92.20
2023-05-19T19:40:06.177Z,92.30
2023-05-19T19:42:33.206Z,92.50
2023-05-19T19:45:00.513Z,92.20
2023-05-19T19:47:27.633Z,92.10
2023-05-19T19:49:54.533Z,92.20
2023-05-19T19:52:21.575Z,92.30
2023-05-19T19:54:48.481Z,93.30
2023-05-19T19:57:17.248Z,92.80
2023-05-19T19:59:44.160Z,93.20
2023-05-19T20:02:11.036Z,93.30
2023-05-19T20:04:38.284Z,93.40
2023-05-19T20:07:05.318Z,93.70
2023-05-19T20:09:32.138Z,94.30
2023-05-19T20:11:58.899Z,94.20
2023-05-19T20:14:26.018Z,94.70
2023-05-19T20:16:52.899Z,94.40
2023-05-19T20:19:19.750Z,94.80
2023-05-19T20:21:46.648Z,94.60
2023-05-19T20:24:13.646Z,94.80
2023-05-19T20:26:40.570Z,95.00
2023-05-19T20:29:07.425Z,95.20
2023-05-19T20:31:34.227Z,95.50
2023-05-19T20:34:01.894Z,95.50
2023-05-19T20:36:28.902Z,96.00
2023-05-19T20:38:55.724Z,96.00
2023-05-19T20:41:22.548Z,96.60
2023-05-19T20:43:49.368Z,96.40
2023-05-19T20:46:16.271Z,97.00
2023-05-19T20:48:43.134Z,97.20
2023-05-19T20:51:09.951Z,97.40
2023-05-19T20:53:36.816Z,97.60
2023-05-19T20:56:05.200Z,97.60
2023-05-19T20:58:32.238Z,98.00
2023-05-19T21:00:59.104Z,98.10
2023-05-19T21:03:27.153Z,98.30
2023-05-19T21:05:55.052Z,98.80
2023-05-19T21:08:22.220Z,99.40
2023-05-19T21:10:49.222Z,99.60
2023-05-19T21:13:16.238Z,99.80
2023-05-19T21:15:43.046Z,99.90
2023-05-19T21:18:11.493Z,99.90
2023-05-19T21:20:39.506Z,99.90
2023-05-19T21:23:06.360Z,99.90
2023-05-19T21:25:33.170Z,99.90
2023-05-19T21:28:00.083Z,99.90
2023-05-19T21:30:26.952Z,99.90
2023-05-19T21:32:53.850Z,99.90
2023-05-19T21:35:20.854Z,99.90
2023-05-19T21:37:47.692Z,99.90
2023-05-19T21:40:14.599Z,99.90
2023-05-19T21:42:41.396Z,99.90
2023-05-19T21:45:08.584Z,99.90
2023-05-19T21:47:35.857Z,99.90
2023-05-19T21:50:02.804Z,99.90
2023-05-19T21:52:30.321Z,99.90
2023-05-19T21:54:58.209Z,99.90
2023-05-19T21:57:25.021Z,99.90
2023-05-19T21:59:52.315Z,99.90
2023-05-19T22:02:19.229Z,99.90
2023-05-19T22:04:46.332Z,99.90
2023-05-19T22:07:13.201Z,99.90
2023-05-19T22:09:40.144Z,99.90
2023-05-19T22:12:07.478Z,99.90
2023-05-19T22:14:34.304Z,99.90
2023-05-19T22:17:01.101Z,99.90
2023-05-19T22:19:27.946Z,99.90
2023-05-19T22:22:01.977Z,99.90
2023-05-19T22:24:37.151Z,99.90
2023-05-19T22:27:04.226Z,99.90
2023-05-19T22:29:31.283Z,99.90
2023-05-19T22:31:58.085Z,99.90
2023-05-19T22:34:25.197Z,99.90
2023-05-19T22:36:51.973Z,99.90
2023-05-19T22:39:18.699Z,99.90
2023-05-19T22:41:45.771Z,99.90
2023-05-19T22:44:16.034Z,99.90
2023-05-19T22:46:44.289Z,99.90
2023-05-19T22:49:11.583Z,99.90
2023-05-19T22:51:39.329Z,99.90
2023-05-19T22:54:07.946Z,99.90
2023-05-19T22:56:34.768Z,99.90
2023-05-19T22:59:01.545Z,99.90
2023-05-19T23:01:28.435Z,99.90
2023-05-19T23:03:55.503Z,99.90
2023-05-19T23:06:22.408Z,99.90
2023-05-19T23:09:01.815Z,99.90
2023-05-19T23:11:28.596Z,99.90
2023-05-19T23:13:55.549Z,99.90
2023-05-19T23:16:22.643Z,99.90
2023-05-19T23:18:49.580Z,99.90
2023-05-19T23:21:16.465Z,99.90
2023-05-19T23:23:43.337Z,99.90
2023-05-19T23:26:10.445Z,99.90
2023-05-19T23:28:37.360Z,99.90
2023-05-19T23:31:04.274Z,99.90
2023-05-19T23:33:31.104Z,99.90
2023-05-19T23:35:59.013Z,99.90
2023-05-19T23:38:26.982Z,99.90
2023-05-19T23:40:53.741Z,99.90
2023-05-19T23:43:20.542Z,99.90
2023-05-19T23:45:47.316Z,99.90
2023-05-19T23:48:14.404Z,99.90
2023-05-19T23:50:41.258Z,99.90
2023-05-19T23:53:08.083Z,99.90
2023-05-19T23:55:35.280Z,99.90
2023-05-19T23:58:03.822Z,99.90
